Joubert, South Dakota
Current Conditions -  °F | °C
As of 6:24 PM on Monday 22 Dec 2014 (Local Time) from KMHE Reporting Station
Haze Haze  
Wind Chill: 28°   Ceiling: 700
Heat Index: 34°   Visibility: 4mi
Dew Point: 33°   Wind: 7mph
Humidity: 96%   Direction: 320°NW
Pressure: 29.47"   Gusts: NA
Location:  43.4292°N, 98.645°W
Report Text: KMHE 230024Z AUTO 32006KT 4SM BR BKN007 OVC021 01/01 A2947 RMK AO2 T00110006
Loading
Personal Weather Stations






























Interactive Weather Map New forecast layout! Learn more

10-Day Weather Forecast

Advertisements
Track Severe Weather on mobile